sensor_id;sensor_type;location;lat;lon;timestamp;temperature;humidity
66596;SHT31;59017;49.252;18.838;2022-12-07T00:00:29;20.86;53.35
66596;SHT31;59017;49.252;18.838;2022-12-07T00:02:55;20.86;53.20
66596;SHT31;59017;49.252;18.838;2022-12-07T00:05:20;20.87;53.16
66596;SHT31;59017;49.252;18.838;2022-12-07T00:07:45;20.86;53.20
66596;SHT31;59017;49.252;18.838;2022-12-07T00:10:11;20.81;53.24
66596;SHT31;59017;49.252;18.838;2022-12-07T00:12:36;20.86;53.40
66596;SHT31;59017;49.252;18.838;2022-12-07T00:15:01;20.86;53.62
66596;SHT31;59017;49.252;18.838;2022-12-07T00:17:27;20.84;53.54
66596;SHT31;59017;49.252;18.838;2022-12-07T00:19:52;20.84;52.92
66596;SHT31;59017;49.252;18.838;2022-12-07T00:22:18;20.83;53.19
66596;SHT31;59017;49.252;18.838;2022-12-07T00:24:43;20.83;52.92
66596;SHT31;59017;49.252;18.838;2022-12-07T00:27:08;20.83;53.68
66596;SHT31;59017;49.252;18.838;2022-12-07T00:29:33;20.83;53.37
66596;SHT31;59017;49.252;18.838;2022-12-07T00:31:59;20.84;53.13
66596;SHT31;59017;49.252;18.838;2022-12-07T00:34:24;20.84;53.16
66596;SHT31;59017;49.252;18.838;2022-12-07T00:36:49;20.87;53.37
66596;SHT31;59017;49.252;18.838;2022-12-07T00:39:15;20.84;53.44
66596;SHT31;59017;49.252;18.838;2022-12-07T00:41:40;20.79;53.53
66596;SHT31;59017;49.252;18.838;2022-12-07T00:44:06;20.80;53.53
66596;SHT31;59017;49.252;18.838;2022-12-07T00:46:31;20.83;53.34
66596;SHT31;59017;49.252;18.838;2022-12-07T00:48:56;20.83;53.30
66596;SHT31;59017;49.252;18.838;2022-12-07T00:51:22;20.86;53.54
66596;SHT31;59017;49.252;18.838;2022-12-07T00:53:48;20.87;53.46
66596;SHT31;59017;49.252;18.838;2022-12-07T00:56:14;20.86;53.90
66596;SHT31;59017;49.252;18.838;2022-12-07T00:58:39;20.86;53.50
66596;SHT31;59017;49.252;18.838;2022-12-07T01:01:05;20.87;53.61
66596;SHT31;59017;49.252;18.838;2022-12-07T01:03:31;20.84;53.63
66596;SHT31;59017;49.252;18.838;2022-12-07T01:05:56;20.84;53.15
66596;SHT31;59017;49.252;18.838;2022-12-07T01:08:22;20.84;53.56
66596;SHT31;59017;49.252;18.838;2022-12-07T01:10:48;20.84;53.57
66596;SHT31;59017;49.252;18.838;2022-12-07T01:13:14;20.86;53.42
66596;SHT31;59017;49.252;18.838;2022-12-07T01:15:42;20.87;53.65
66596;SHT31;59017;49.252;18.838;2022-12-07T01:18:08;20.90;53.33
66596;SHT31;59017;49.252;18.838;2022-12-07T01:20:34;20.83;53.53
66596;SHT31;59017;49.252;18.838;2022-12-07T01:22:59;20.83;53.38
66596;SHT31;59017;49.252;18.838;2022-12-07T01:25:25;20.83;53.13
66596;SHT31;59017;49.252;18.838;2022-12-07T01:27:50;20.81;53.35
66596;SHT31;59017;49.252;18.838;2022-12-07T01:30:15;20.83;53.35
66596;SHT31;59017;49.252;18.838;2022-12-07T01:32:41;20.83;53.33
66596;SHT31;59017;49.252;18.838;2022-12-07T01:35:06;20.81;52.88
66596;SHT31;59017;49.252;18.838;2022-12-07T01:37:35;20.81;52.92
66596;SHT31;59017;49.252;18.838;2022-12-07T01:40:01;20.83;53.15
66596;SHT31;59017;49.252;18.838;2022-12-07T01:42:27;20.80;53.17
66596;SHT31;59017;49.252;18.838;2022-12-07T01:47:37;20.80;53.29
66596;SHT31;59017;49.252;18.838;2022-12-07T01:50:03;20.83;52.94
66596;SHT31;59017;49.252;18.838;2022-12-07T01:52:29;20.81;52.87
66596;SHT31;59017;49.252;18.838;2022-12-07T01:54:57;20.81;53.37
66596;SHT31;59017;49.252;18.838;2022-12-07T01:57:24;20.84;53.30
66596;SHT31;59017;49.252;18.838;2022-12-07T01:59:50;20.81;53.25
66596;SHT31;59017;49.252;18.838;2022-12-07T02:02:18;20.80;52.65
66596;SHT31;59017;49.252;18.838;2022-12-07T02:04:44;20.83;53.03
66596;SHT31;59017;49.252;18.838;2022-12-07T02:07:10;20.80;53.43
66596;SHT31;59017;49.252;18.838;2022-12-07T02:09:35;20.80;53.58
66596;SHT31;59017;49.252;18.838;2022-12-07T02:12:01;20.80;53.34
66596;SHT31;59017;49.252;18.838;2022-12-07T02:14:26;20.80;53.68
66596;SHT31;59017;49.252;18.838;2022-12-07T02:22:26;20.84;53.91
66596;SHT31;59017;49.252;18.838;2022-12-07T02:24:53;20.84;53.40
66596;SHT31;59017;49.252;18.838;2022-12-07T02:32:26;20.84;53.84
66596;SHT31;59017;49.252;18.838;2022-12-07T02:34:56;20.81;53.63
66596;SHT31;59017;49.252;18.838;2022-12-07T02:40:09;20.81;53.51
66596;SHT31;59017;49.252;18.838;2022-12-07T02:42:40;20.83;54.02
66596;SHT31;59017;49.252;18.838;2022-12-07T02:45:08;20.80;53.60
66596;SHT31;59017;49.252;18.838;2022-12-07T02:47:33;20.81;53.96
66596;SHT31;59017;49.252;18.838;2022-12-07T02:50:02;20.83;53.80
66596;SHT31;59017;49.252;18.838;2022-12-07T02:52:28;20.81;53.69
66596;SHT31;59017;49.252;18.838;2022-12-07T02:54:53;20.79;53.53
66596;SHT31;59017;49.252;18.838;2022-12-07T03:00:05;20.80;53.42
66596;SHT31;59017;49.252;18.838;2022-12-07T03:05:19;20.80;53.28
66596;SHT31;59017;49.252;18.838;2022-12-07T03:10:28;20.80;53.40
66596;SHT31;59017;49.252;18.838;2022-12-07T03:13:02;20.81;53.40
66596;SHT31;59017;49.252;18.838;2022-12-07T03:17:59;20.79;53.34
66596;SHT31;59017;49.252;18.838;2022-12-07T03:20:26;20.80;52.85
66596;SHT31;59017;49.252;18.838;2022-12-07T03:22:52;20.83;53.43
66596;SHT31;59017;49.252;18.838;2022-12-07T03:25:19;20.79;53.53
66596;SHT31;59017;49.252;18.838;2022-12-07T03:27:45;20.83;53.21
66596;SHT31;59017;49.252;18.838;2022-12-07T03:30:15;20.79;53.68
66596;SHT31;59017;49.252;18.838;2022-12-07T03:32:43;20.80;53.40
66596;SHT31;59017;49.252;18.838;2022-12-07T03:42:44;20.79;53.85
66596;SHT31;59017;49.252;18.838;2022-12-07T03:45:10;20.77;53.38
66596;SHT31;59017;49.252;18.838;2022-12-07T03:50:12;20.76;53.47
66596;SHT31;59017;49.252;18.838;2022-12-07T03:55:06;20.73;53.26
66596;SHT31;59017;49.252;18.838;2022-12-07T03:57:33;20.75;53.11
66596;SHT31;59017;49.252;18.838;2022-12-07T03:59:59;20.76;53.39
66596;SHT31;59017;49.252;18.838;2022-12-07T04:02:26;20.77;53.38
66596;SHT31;59017;49.252;18.838;2022-12-07T04:04:52;20.77;53.23
66596;SHT31;59017;49.252;18.838;2022-12-07T04:07:17;20.77;53.16
66596;SHT31;59017;49.252;18.838;2022-12-07T04:09:43;20.80;53.19
66596;SHT31;59017;49.252;18.838;2022-12-07T04:12:08;20.79;52.97
66596;SHT31;59017;49.252;18.838;2022-12-07T04:14:33;20.80;52.78
66596;SHT31;59017;49.252;18.838;2022-12-07T04:16:59;20.83;52.69
66596;SHT31;59017;49.252;18.838;2022-12-07T04:19:28;20.84;53.03
66596;SHT31;59017;49.252;18.838;2022-12-07T04:21:54;20.83;52.76
66596;SHT31;59017;49.252;18.838;2022-12-07T04:24:20;20.90;52.93
66596;SHT31;59017;49.252;18.838;2022-12-07T04:26:46;20.86;52.85
66596;SHT31;59017;49.252;18.838;2022-12-07T04:29:11;20.89;52.84
66596;SHT31;59017;49.252;18.838;2022-12-07T04:31:37;20.87;52.47
66596;SHT31;59017;49.252;18.838;2022-12-07T04:34:03;20.89;52.37
66596;SHT31;59017;49.252;18.838;2022-12-07T04:36:28;20.90;52.30
66596;SHT31;59017;49.252;18.838;2022-12-07T04:38:54;20.91;52.36
66596;SHT31;59017;49.252;18.838;2022-12-07T04:41:20;20.90;52.79
66596;SHT31;59017;49.252;18.838;2022-12-07T04:43:55;20.93;52.42
66596;SHT31;59017;49.252;18.838;2022-12-07T04:46:21;20.93;52.91
66596;SHT31;59017;49.252;18.838;2022-12-07T04:48:46;20.93;52.25
66596;SHT31;59017;49.252;18.838;2022-12-07T04:51:12;20.93;52.37
66596;SHT31;59017;49.252;18.838;2022-12-07T04:53:37;20.93;52.65
66596;SHT31;59017;49.252;18.838;2022-12-07T04:56:03;20.91;52.02
66596;SHT31;59017;49.252;18.838;2022-12-07T04:58:28;20.90;52.14
66596;SHT31;59017;49.252;18.838;2022-12-07T05:00:54;20.90;51.86
66596;SHT31;59017;49.252;18.838;2022-12-07T05:03:20;20.89;51.64
66596;SHT31;59017;49.252;18.838;2022-12-07T05:05:45;20.86;51.88
66596;SHT31;59017;49.252;18.838;2022-12-07T05:08:10;20.89;51.64
66596;SHT31;59017;49.252;18.838;2022-12-07T05:10:36;20.86;51.47
66596;SHT31;59017;49.252;18.838;2022-12-07T05:13:01;20.87;51.67
66596;SHT31;59017;49.252;18.838;2022-12-07T05:15:26;20.86;51.47
66596;SHT31;59017;49.252;18.838;2022-12-07T05:17:52;20.87;51.53
66596;SHT31;59017;49.252;18.838;2022-12-07T05:20:17;20.84;51.25
66596;SHT31;59017;49.252;18.838;2022-12-07T05:22:42;20.83;51.52
66596;SHT31;59017;49.252;18.838;2022-12-07T05:25:08;20.83;51.21
66596;SHT31;59017;49.252;18.838;2022-12-07T05:27:33;20.81;50.99
66596;SHT31;59017;49.252;18.838;2022-12-07T05:29:59;20.80;51.17
66596;SHT31;59017;49.252;18.838;2022-12-07T05:32:24;20.81;50.96
66596;SHT31;59017;49.252;18.838;2022-12-07T05:34:49;20.79;50.51
66596;SHT31;59017;49.252;18.838;2022-12-07T05:37:15;20.79;51.18
66596;SHT31;59017;49.252;18.838;2022-12-07T05:39:40;20.79;50.88
66596;SHT31;59017;49.252;18.838;2022-12-07T05:42:08;20.80;50.55
66596;SHT31;59017;49.252;18.838;2022-12-07T05:44:44;20.80;50.77
66596;SHT31;59017;49.252;18.838;2022-12-07T05:47:10;20.80;50.63
66596;SHT31;59017;49.252;18.838;2022-12-07T05:49:35;20.80;50.59
66596;SHT31;59017;49.252;18.838;2022-12-07T05:52:01;20.80;50.29
66596;SHT31;59017;49.252;18.838;2022-12-07T05:54:26;20.80;50.21
66596;SHT31;59017;49.252;18.838;2022-12-07T05:56:52;20.80;50.28
66596;SHT31;59017;49.252;18.838;2022-12-07T05:59:17;20.77;50.37
66596;SHT31;59017;49.252;18.838;2022-12-07T06:01:58;20.80;50.25
66596;SHT31;59017;49.252;18.838;2022-12-07T06:04:24;20.81;50.37
66596;SHT31;59017;49.252;18.838;2022-12-07T06:06:50;20.81;50.04
66596;SHT31;59017;49.252;18.838;2022-12-07T06:09:16;20.79;49.93
66596;SHT31;59017;49.252;18.838;2022-12-07T06:11:43;20.80;50.08
66596;SHT31;59017;49.252;18.838;2022-12-07T06:14:27;20.79;50.07
66596;SHT31;59017;49.252;18.838;2022-12-07T06:16:52;20.79;49.97
66596;SHT31;59017;49.252;18.838;2022-12-07T06:19:17;20.80;50.17
66596;SHT31;59017;49.252;18.838;2022-12-07T06:21:43;20.79;49.61
66596;SHT31;59017;49.252;18.838;2022-12-07T06:24:12;20.81;49.94
66596;SHT31;59017;49.252;18.838;2022-12-07T06:26:37;20.81;49.95
66596;SHT31;59017;49.252;18.838;2022-12-07T06:29:03;20.80;49.66
66596;SHT31;59017;49.252;18.838;2022-12-07T06:31:28;20.80;49.52
66596;SHT31;59017;49.252;18.838;2022-12-07T06:33:57;20.81;49.75
66596;SHT31;59017;49.252;18.838;2022-12-07T06:36:22;20.83;49.67
66596;SHT31;59017;49.252;18.838;2022-12-07T06:38:47;20.83;49.53
66596;SHT31;59017;49.252;18.838;2022-12-07T06:41:13;20.81;49.57
66596;SHT31;59017;49.252;18.838;2022-12-07T06:43:38;20.81;49.66
66596;SHT31;59017;49.252;18.838;2022-12-07T06:46:04;20.81;49.45
66596;SHT31;59017;49.252;18.838;2022-12-07T06:48:29;20.84;49.63
66596;SHT31;59017;49.252;18.838;2022-12-07T06:51:04;20.83;49.27
66596;SHT31;59017;49.252;18.838;2022-12-07T06:53:30;20.81;49.46
66596;SHT31;59017;49.252;18.838;2022-12-07T06:55:55;20.80;49.28
66596;SHT31;59017;49.252;18.838;2022-12-07T06:58:20;20.81;49.29
66596;SHT31;59017;49.252;18.838;2022-12-07T07:00:47;20.83;49.28
66596;SHT31;59017;49.252;18.838;2022-12-07T07:03:13;20.84;49.24
66596;SHT31;59017;49.252;18.838;2022-12-07T07:05:38;20.80;49.25
66596;SHT31;59017;49.252;18.838;2022-12-07T07:08:04;20.83;49.41
66596;SHT31;59017;49.252;18.838;2022-12-07T07:10:29;20.83;48.95
66596;SHT31;59017;49.252;18.838;2022-12-07T07:12:55;20.81;49.06
66596;SHT31;59017;49.252;18.838;2022-12-07T07:15:20;20.80;49.02
66596;SHT31;59017;49.252;18.838;2022-12-07T07:17:45;20.83;49.25
66596;SHT31;59017;49.252;18.838;2022-12-07T07:20:11;20.83;49.15
66596;SHT31;59017;49.252;18.838;2022-12-07T07:22:36;20.81;48.98
66596;SHT31;59017;49.252;18.838;2022-12-07T07:25:02;20.83;48.93
66596;SHT31;59017;49.252;18.838;2022-12-07T07:27:27;20.83;48.93
66596;SHT31;59017;49.252;18.838;2022-12-07T07:29:53;20.86;48.98
66596;SHT31;59017;49.252;18.838;2022-12-07T07:32:18;20.84;49.03
66596;SHT31;59017;49.252;18.838;2022-12-07T07:34:43;20.80;48.62
66596;SHT31;59017;49.252;18.838;2022-12-07T07:37:09;20.81;48.85
66596;SHT31;59017;49.252;18.838;2022-12-07T07:39:36;20.83;48.77
66596;SHT31;59017;49.252;18.838;2022-12-07T07:42:01;20.83;48.56
66596;SHT31;59017;49.252;18.838;2022-12-07T07:44:26;20.81;48.77
66596;SHT31;59017;49.252;18.838;2022-12-07T07:46:52;20.81;48.71
66596;SHT31;59017;49.252;18.838;2022-12-07T07:49:17;20.83;48.46
66596;SHT31;59017;49.252;18.838;2022-12-07T07:51:42;20.84;48.53
66596;SHT31;59017;49.252;18.838;2022-12-07T07:54:07;20.84;48.69
66596;SHT31;59017;49.252;18.838;2022-12-07T07:56:33;20.83;48.35
66596;SHT31;59017;49.252;18.838;2022-12-07T07:58:58;20.81;48.46
66596;SHT31;59017;49.252;18.838;2022-12-07T08:01:23;20.84;48.57
66596;SHT31;59017;49.252;18.838;2022-12-07T08:03:49;20.83;48.50
66596;SHT31;59017;49.252;18.838;2022-12-07T08:06:14;20.83;48.06
66596;SHT31;59017;49.252;18.838;2022-12-07T08:08:39;20.84;48.22
66596;SHT31;59017;49.252;18.838;2022-12-07T08:11:05;20.83;48.39
66596;SHT31;59017;49.252;18.838;2022-12-07T08:13:30;20.81;48.20
66596;SHT31;59017;49.252;18.838;2022-12-07T08:15:56;20.83;48.36
66596;SHT31;59017;49.252;18.838;2022-12-07T08:18:21;20.81;48.37
66596;SHT31;59017;49.252;18.838;2022-12-07T08:20:46;20.81;48.12
66596;SHT31;59017;49.252;18.838;2022-12-07T08:23:12;20.81;48.09
66596;SHT31;59017;49.252;18.838;2022-12-07T08:25:37;20.84;48.33
66596;SHT31;59017;49.252;18.838;2022-12-07T08:28:03;20.83;48.03
66596;SHT31;59017;49.252;18.838;2022-12-07T08:30:28;20.83;48.11
66596;SHT31;59017;49.252;18.838;2022-12-07T08:32:54;20.83;48.35
66596;SHT31;59017;49.252;18.838;2022-12-07T08:35:20;20.84;48.01
66596;SHT31;59017;49.252;18.838;2022-12-07T08:37:46;20.83;47.96
66596;SHT31;59017;49.252;18.838;2022-12-07T08:40:11;20.84;48.08
66596;SHT31;59017;49.252;18.838;2022-12-07T08:42:40;20.84;48.04
66596;SHT31;59017;49.252;18.838;2022-12-07T08:45:06;20.86;47.88
66596;SHT31;59017;49.252;18.838;2022-12-07T08:47:33;20.84;47.75
66596;SHT31;59017;49.252;18.838;2022-12-07T08:49:59;20.83;47.86
66596;SHT31;59017;49.252;18.838;2022-12-07T08:52:29;20.84;47.68
66596;SHT31;59017;49.252;18.838;2022-12-07T08:54:55;20.86;47.84
66596;SHT31;59017;49.252;18.838;2022-12-07T08:57:20;20.86;47.92
66596;SHT31;59017;49.252;18.838;2022-12-07T08:59:46;20.84;47.84
66596;SHT31;59017;49.252;18.838;2022-12-07T09:02:11;20.83;48.01
66596;SHT31;59017;49.252;18.838;2022-12-07T09:04:36;20.86;47.86
66596;SHT31;59017;49.252;18.838;2022-12-07T09:07:02;20.84;47.93
66596;SHT31;59017;49.252;18.838;2022-12-07T09:09:28;20.84;47.59
66596;SHT31;59017;49.252;18.838;2022-12-07T09:11:53;20.86;47.41
66596;SHT31;59017;49.252;18.838;2022-12-07T09:14:18;20.86;47.51
66596;SHT31;59017;49.252;18.838;2022-12-07T09:16:44;20.87;47.41
66596;SHT31;59017;49.252;18.838;2022-12-07T09:19:09;20.83;47.29
66596;SHT31;59017;49.252;18.838;2022-12-07T09:21:34;20.84;47.65
66596;SHT31;59017;49.252;18.838;2022-12-07T09:24:00;20.89;47.63
66596;SHT31;59017;49.252;18.838;2022-12-07T09:26:25;20.86;47.49
66596;SHT31;59017;49.252;18.838;2022-12-07T09:28:51;20.84;47.66
66596;SHT31;59017;49.252;18.838;2022-12-07T09:31:16;20.86;47.45
66596;SHT31;59017;49.252;18.838;2022-12-07T09:33:41;20.86;47.50
66596;SHT31;59017;49.252;18.838;2022-12-07T09:36:07;20.86;47.41
66596;SHT31;59017;49.252;18.838;2022-12-07T09:38:32;20.83;47.38
66596;SHT31;59017;49.252;18.838;2022-12-07T09:40:57;20.86;47.30
66596;SHT31;59017;49.252;18.838;2022-12-07T09:43:28;20.84;47.35
66596;SHT31;59017;49.252;18.838;2022-12-07T09:45:54;20.86;47.32
66596;SHT31;59017;49.252;18.838;2022-12-07T09:48:25;20.86;47.48
66596;SHT31;59017;49.252;18.838;2022-12-07T09:50:53;20.87;47.31
66596;SHT31;59017;49.252;18.838;2022-12-07T09:53:30;20.84;47.16
66596;SHT31;59017;49.252;18.838;2022-12-07T09:55:58;20.89;47.19
66596;SHT31;59017;49.252;18.838;2022-12-07T09:58:24;20.89;47.16
66596;SHT31;59017;49.252;18.838;2022-12-07T10:00:53;20.87;47.47
66596;SHT31;59017;49.252;18.838;2022-12-07T10:03:20;20.89;47.07
66596;SHT31;59017;49.252;18.838;2022-12-07T10:05:47;20.89;47.34
66596;SHT31;59017;49.252;18.838;2022-12-07T10:08:13;20.89;46.83
66596;SHT31;59017;49.252;18.838;2022-12-07T10:10:40;20.89;47.03
66596;SHT31;59017;49.252;18.838;2022-12-07T10:18:34;20.90;47.05
66596;SHT31;59017;49.252;18.838;2022-12-07T10:21:11;20.89;47.18
66596;SHT31;59017;49.252;18.838;2022-12-07T10:23:38;20.90;47.11
66596;SHT31;59017;49.252;18.838;2022-12-07T10:26:21;20.91;46.93
66596;SHT31;59017;49.252;18.838;2022-12-07T10:28:50;20.87;46.94
66596;SHT31;59017;49.252;18.838;2022-12-07T10:31:16;20.90;46.96
66596;SHT31;59017;49.252;18.838;2022-12-07T10:33:55;20.90;46.89
66596;SHT31;59017;49.252;18.838;2022-12-07T10:36:23;20.89;47.06
66596;SHT31;59017;49.252;18.838;2022-12-07T10:41:23;20.89;46.81
66596;SHT31;59017;49.252;18.838;2022-12-07T10:43:52;20.90;47.02
66596;SHT31;59017;49.252;18.838;2022-12-07T10:46:22;20.91;46.91
66596;SHT31;59017;49.252;18.838;2022-12-07T10:56:53;20.93;46.73
66596;SHT31;59017;49.252;18.838;2022-12-07T11:06:54;20.90;46.38
66596;SHT31;59017;49.252;18.838;2022-12-07T11:11:50;20.94;46.66
66596;SHT31;59017;49.252;18.838;2022-12-07T11:19:32;20.93;46.77
66596;SHT31;59017;49.252;18.838;2022-12-07T11:22:09;20.93;46.34
66596;SHT31;59017;49.252;18.838;2022-12-07T11:32:11;20.91;46.63
66596;SHT31;59017;49.252;18.838;2022-12-07T11:34:44;20.93;46.63
66596;SHT31;59017;49.252;18.838;2022-12-07T11:37:13;20.90;46.58
66596;SHT31;59017;49.252;18.838;2022-12-07T11:39:48;20.93;46.54
66596;SHT31;59017;49.252;18.838;2022-12-07T11:42:25;20.91;46.47
66596;SHT31;59017;49.252;18.838;2022-12-07T11:44:52;20.91;46.52
66596;SHT31;59017;49.252;18.838;2022-12-07T11:49:54;20.90;46.43
66596;SHT31;59017;49.252;18.838;2022-12-07T11:52:30;20.91;46.16
66596;SHT31;59017;49.252;18.838;2022-12-07T11:54:57;20.90;46.24
66596;SHT31;59017;49.252;18.838;2022-12-07T11:57:28;20.91;46.25
66596;SHT31;59017;49.252;18.838;2022-12-07T11:59:57;20.89;46.34
66596;SHT31;59017;49.252;18.838;2022-12-07T12:02:28;20.90;46.27
66596;SHT31;59017;49.252;18.838;2022-12-07T12:07:22;20.90;46.27
66596;SHT31;59017;49.252;18.838;2022-12-07T12:09:59;20.90;46.12
66596;SHT31;59017;49.252;18.838;2022-12-07T12:12:44;20.90;45.98
66596;SHT31;59017;49.252;18.838;2022-12-07T12:20:43;20.89;46.11
66596;SHT31;59017;49.252;18.838;2022-12-07T12:23:15;20.89;46.31
66596;SHT31;59017;49.252;18.838;2022-12-07T12:25:42;20.91;46.43
66596;SHT31;59017;49.252;18.838;2022-12-07T12:28:18;20.89;45.98
66596;SHT31;59017;49.252;18.838;2022-12-07T12:30:45;20.90;46.30
66596;SHT31;59017;49.252;18.838;2022-12-07T12:33:19;20.89;46.25
66596;SHT31;59017;49.252;18.838;2022-12-07T12:36:16;20.86;46.14
66596;SHT31;59017;49.252;18.838;2022-12-07T12:38:33;20.90;46.00
66596;SHT31;59017;49.252;18.838;2022-12-07T12:41:50;20.90;46.04
66596;SHT31;59017;49.252;18.838;2022-12-07T12:43:58;20.91;46.22
66596;SHT31;59017;49.252;18.838;2022-12-07T12:51:39;20.91;45.96
66596;SHT31;59017;49.252;18.838;2022-12-07T12:54:08;20.90;45.98
66596;SHT31;59017;49.252;18.838;2022-12-07T12:56:39;20.90;45.69
66596;SHT31;59017;49.252;18.838;2022-12-07T13:01:51;20.87;45.81
66596;SHT31;59017;49.252;18.838;2022-12-07T13:04:23;20.91;46.02
66596;SHT31;59017;49.252;18.838;2022-12-07T13:06:49;20.87;45.89
66596;SHT31;59017;49.252;18.838;2022-12-07T13:09:20;20.89;45.85
66596;SHT31;59017;49.252;18.838;2022-12-07T13:11:47;20.89;45.62
66596;SHT31;59017;49.252;18.838;2022-12-07T13:19:57;20.89;45.79
66596;SHT31;59017;49.252;18.838;2022-12-07T13:24:58;20.89;45.67
66596;SHT31;59017;49.252;18.838;2022-12-07T13:27:26;20.89;45.70
66596;SHT31;59017;49.252;18.838;2022-12-07T13:29:52;20.89;45.65
66596;SHT31;59017;49.252;18.838;2022-12-07T13:32:23;20.87;45.85
66596;SHT31;59017;49.252;18.838;2022-12-07T13:34:49;20.87;45.82
66596;SHT31;59017;49.252;18.838;2022-12-07T13:37:24;20.89;45.68
66596;SHT31;59017;49.252;18.838;2022-12-07T13:39:54;20.87;45.73
66596;SHT31;59017;49.252;18.838;2022-12-07T13:44:48;20.87;45.47
66596;SHT31;59017;49.252;18.838;2022-12-07T13:47:21;20.89;45.77
66596;SHT31;59017;49.252;18.838;2022-12-07T13:49:49;20.87;45.97
66596;SHT31;59017;49.252;18.838;2022-12-07T13:55:29;20.86;45.77
66596;SHT31;59017;49.252;18.838;2022-12-07T13:57:30;20.87;45.78
66596;SHT31;59017;49.252;18.838;2022-12-07T13:59:55;20.87;45.77
66596;SHT31;59017;49.252;18.838;2022-12-07T14:02:26;20.86;45.39
66596;SHT31;59017;49.252;18.838;2022-12-07T14:04:52;20.89;45.76
66596;SHT31;59017;49.252;18.838;2022-12-07T14:07:24;20.86;45.81
66596;SHT31;59017;49.252;18.838;2022-12-07T14:10:22;20.87;45.69
66596;SHT31;59017;49.252;18.838;2022-12-07T14:12:38;20.86;45.81
66596;SHT31;59017;49.252;18.838;2022-12-07T14:15:04;20.86;45.80
66596;SHT31;59017;49.252;18.838;2022-12-07T14:17:31;20.89;45.65
66596;SHT31;59017;49.252;18.838;2022-12-07T14:19:57;20.86;45.60
66596;SHT31;59017;49.252;18.838;2022-12-07T14:24:48;20.84;45.60
66596;SHT31;59017;49.252;18.838;2022-12-07T14:27:20;20.84;45.48
66596;SHT31;59017;49.252;18.838;2022-12-07T14:29:46;20.84;45.70
66596;SHT31;59017;49.252;18.838;2022-12-07T14:34:40;20.83;45.62
66596;SHT31;59017;49.252;18.838;2022-12-07T14:37:07;20.83;45.73
66596;SHT31;59017;49.252;18.838;2022-12-07T14:39:33;20.87;45.64
66596;SHT31;59017;49.252;18.838;2022-12-07T14:41:58;20.87;45.67
66596;SHT31;59017;49.252;18.838;2022-12-07T14:44:23;20.86;45.54
66596;SHT31;59017;49.252;18.838;2022-12-07T14:46:49;20.87;45.61
66596;SHT31;59017;49.252;18.838;2022-12-07T14:49:14;20.84;45.45
66596;SHT31;59017;49.252;18.838;2022-12-07T14:51:40;20.83;45.62
66596;SHT31;59017;49.252;18.838;2022-12-07T14:54:06;20.86;45.47
66596;SHT31;59017;49.252;18.838;2022-12-07T14:56:36;20.84;45.42
66596;SHT31;59017;49.252;18.838;2022-12-07T14:59:01;20.86;45.45
66596;SHT31;59017;49.252;18.838;2022-12-07T15:01:27;20.84;45.74
66596;SHT31;59017;49.252;18.838;2022-12-07T15:03:52;20.86;45.60
66596;SHT31;59017;49.252;18.838;2022-12-07T15:06:17;20.83;45.45
66596;SHT31;59017;49.252;18.838;2022-12-07T15:08:43;20.84;45.32
66596;SHT31;59017;49.252;18.838;2022-12-07T15:11:15;20.83;45.47
66596;SHT31;59017;49.252;18.838;2022-12-07T15:13:40;20.86;45.36
66596;SHT31;59017;49.252;18.838;2022-12-07T15:16:24;20.84;45.32
66596;SHT31;59017;49.252;18.838;2022-12-07T15:18:49;20.84;45.41
66596;SHT31;59017;49.252;18.838;2022-12-07T15:21:15;20.80;45.61
66596;SHT31;59017;49.252;18.838;2022-12-07T15:23:41;20.81;45.47
66596;SHT31;59017;49.252;18.838;2022-12-07T15:26:06;20.81;45.16
66596;SHT31;59017;49.252;18.838;2022-12-07T15:28:33;20.83;45.38
66596;SHT31;59017;49.252;18.838;2022-12-07T15:30:58;20.83;45.38
66596;SHT31;59017;49.252;18.838;2022-12-07T15:33:23;20.81;45.55
66596;SHT31;59017;49.252;18.838;2022-12-07T15:35:49;20.83;45.54
66596;SHT31;59017;49.252;18.838;2022-12-07T15:38:14;20.81;45.25
66596;SHT31;59017;49.252;18.838;2022-12-07T15:40:39;20.81;45.33
66596;SHT31;59017;49.252;18.838;2022-12-07T15:43:05;20.81;45.39
66596;SHT31;59017;49.252;18.838;2022-12-07T15:45:50;20.81;45.11
66596;SHT31;59017;49.252;18.838;2022-12-07T15:48:15;20.80;45.29
66596;SHT31;59017;49.252;18.838;2022-12-07T15:50:41;20.79;45.42
66596;SHT31;59017;49.252;18.838;2022-12-07T15:53:06;20.81;45.46
66596;SHT31;59017;49.252;18.838;2022-12-07T15:55:31;20.79;45.30
66596;SHT31;59017;49.252;18.838;2022-12-07T15:57:57;20.80;45.31
66596;SHT31;59017;49.252;18.838;2022-12-07T16:00:22;20.80;44.96
66596;SHT31;59017;49.252;18.838;2022-12-07T16:02:47;20.80;45.39
66596;SHT31;59017;49.252;18.838;2022-12-07T16:05:13;20.80;45.47
66596;SHT31;59017;49.252;18.838;2022-12-07T16:07:38;20.80;45.27
66596;SHT31;59017;49.252;18.838;2022-12-07T16:10:03;20.80;45.21
66596;SHT31;59017;49.252;18.838;2022-12-07T16:12:29;20.81;45.48
66596;SHT31;59017;49.252;18.838;2022-12-07T16:14:54;20.80;45.05
66596;SHT31;59017;49.252;18.838;2022-12-07T16:17:19;20.83;45.29
66596;SHT31;59017;49.252;18.838;2022-12-07T16:19:45;20.80;45.35
66596;SHT31;59017;49.252;18.838;2022-12-07T16:22:10;20.81;45.46
66596;SHT31;59017;49.252;18.838;2022-12-07T16:24:36;20.77;45.28
66596;SHT31;59017;49.252;18.838;2022-12-07T16:27:01;20.79;45.27
66596;SHT31;59017;49.252;18.838;2022-12-07T16:29:26;20.77;45.48
66596;SHT31;59017;49.252;18.838;2022-12-07T16:31:52;20.79;45.41
66596;SHT31;59017;49.252;18.838;2022-12-07T16:34:17;20.80;45.27
66596;SHT31;59017;49.252;18.838;2022-12-07T16:36:43;20.76;45.27
66596;SHT31;59017;49.252;18.838;2022-12-07T16:39:08;20.79;45.45
66596;SHT31;59017;49.252;18.838;2022-12-07T16:41:33;20.77;45.20
66596;SHT31;59017;49.252;18.838;2022-12-07T16:44:06;20.75;45.09
66596;SHT31;59017;49.252;18.838;2022-12-07T16:46:32;20.79;45.17
66596;SHT31;59017;49.252;18.838;2022-12-07T16:48:57;20.80;45.00
66596;SHT31;59017;49.252;18.838;2022-12-07T16:51:23;20.77;45.15
66596;SHT31;59017;49.252;18.838;2022-12-07T16:53:48;20.79;44.99
66596;SHT31;59017;49.252;18.838;2022-12-07T16:56:14;20.79;45.22
66596;SHT31;59017;49.252;18.838;2022-12-07T16:58:40;20.75;45.14
66596;SHT31;59017;49.252;18.838;2022-12-07T17:01:10;20.76;45.21
66596;SHT31;59017;49.252;18.838;2022-12-07T17:03:36;20.76;45.27
66596;SHT31;59017;49.252;18.838;2022-12-07T17:06:01;20.77;45.43
66596;SHT31;59017;49.252;18.838;2022-12-07T17:08:26;20.77;45.38